Time;durP1;ratioP1;P1;durP2;ratioP2;P2;SDS_P1;SDS_P2;PMS_P1;PMS_P2;Temp;Humidity;BMP_temperature;BMP_pressure;BME280_temperature;BME280_humidity;BME280_pressure;Samples;Min_cycle;Max_cycle;Signal;HPM_P1;HPM_P2
2023/10/13 00:02:11;;;;;;;3.72;2.83;;;20.60;55.70;;;;;;5073512;28;20211;-77
2023/10/13 00:04:38;;;;;;;3.13;2.80;;;20.60;55.70;;;;;;5072948;28;20229;-77
2023/10/13 00:07:08;;;;;;;3.10;2.80;;;20.60;55.70;;;;;;5072277;28;20198;-77
2023/10/13 00:09:38;;;;;;;3.30;2.97;;;20.60;55.70;;;;;;5072884;28;20525;-77
2023/10/13 00:12:08;;;;;;;3.10;2.80;;;20.60;55.70;;;;;;5072404;28;20553;-77
2023/10/13 00:14:35;;;;;;;3.00;2.70;;;20.60;55.80;;;;;;5072635;28;20195;-77
2023/10/13 00:17:04;;;;;;;3.70;2.88;;;20.50;55.70;;;;;;5072557;28;20669;-77
2023/10/13 00:19:37;;;;;;;3.80;2.85;;;20.50;55.60;;;;;;5073082;28;20248;-77
2023/10/13 00:22:09;;;;;;;3.15;2.85;;;20.50;55.70;;;;;;5072040;28;20584;-77
2023/10/13 00:24:43;;;;;;;3.30;3.05;;;20.50;55.60;;;;;;5056199;28;20187;-77
2023/10/13 00:27:27;;;;;;;4.30;2.90;;;20.50;55.50;;;;;;5072236;28;20187;-77
2023/10/13 00:30:15;;;;;;;4.35;2.60;;;20.50;55.60;;;;;;5072012;28;20226;-77
2023/10/13 00:32:44;;;;;;;3.50;3.00;;;20.50;55.50;;;;;;5072079;28;20674;-77
2023/10/13 00:35:15;;;;;;;2.83;2.63;;;20.50;55.50;;;;;;5072089;28;20191;-77
2023/10/13 00:37:44;;;;;;;3.88;2.75;;;20.50;55.50;;;;;;5080785;28;20191;-77
2023/10/13 00:40:40;;;;;;;3.85;2.83;;;20.50;55.50;;;;;;5071898;28;20211;-77
2023/10/13 00:43:31;;;;;;;3.33;2.80;;;20.50;55.60;;;;;;5072018;28;20206;-77
2023/10/13 00:45:57;;;;;;;3.00;2.65;;;20.50;55.60;;;;;;5072575;28;20195;-77
2023/10/13 00:48:28;;;;;;;3.80;2.65;;;20.40;55.50;;;;;;5072187;28;20191;-77
2023/10/13 00:50:56;;;;;;;3.58;2.65;;;20.40;55.50;;;;;;5071793;28;20211;-77
2023/10/13 00:53:25;;;;;;;2.72;2.50;;;20.40;55.60;;;;;;5071980;28;20194;-77
2023/10/13 00:55:55;;;;;;;3.50;2.70;;;20.40;55.60;;;;;;5071933;28;20219;-77
2023/10/13 00:58:24;;;;;;;3.40;3.10;;;20.40;55.60;;;;;;5072686;28;20214;-77
2023/10/13 01:00:56;;;;;;;2.85;2.63;;;20.40;55.60;;;;;;5075331;28;20226;-77
2023/10/13 01:03:26;;;;;;;3.63;2.90;;;20.40;55.60;;;;;;5076125;28;20250;-77
2023/10/13 01:05:54;;;;;;;3.13;2.67;;;20.30;55.60;;;;;;5075375;28;20199;-77
2023/10/13 01:08:34;;;;;;;3.22;2.92;;;20.40;55.60;;;;;;5075453;28;20277;-77
2023/10/13 01:11:02;;;;;;;2.70;2.50;;;20.40;55.60;;;;;;5075408;28;20226;-77
2023/10/13 01:13:30;;;;;;;3.83;2.70;;;20.30;55.50;;;;;;5076242;28;20195;-77
2023/10/13 01:15:57;;;;;;;2.97;2.70;;;20.30;55.50;;;;;;5071496;28;20240;-77
2023/10/13 01:18:28;;;;;;;3.25;3.00;;;20.30;55.50;;;;;;5075390;28;20197;-77
2023/10/13 01:20:58;;;;;;;3.05;2.65;;;20.30;55.60;;;;;;5075121;28;20241;-77
2023/10/13 01:23:37;;;;;;;3.33;2.88;;;20.30;55.50;;;;;;5075004;28;20194;-77
2023/10/13 01:26:05;;;;;;;3.72;2.92;;;20.30;55.50;;;;;;5075539;28;20190;-77
2023/10/13 01:28:44;;;;;;;3.22;2.80;;;20.30;55.50;;;;;;5075048;28;20649;-77
2023/10/13 01:31:12;;;;;;;2.97;2.55;;;20.30;55.50;;;;;;5074784;28;20682;-77
2023/10/13 01:33:39;;;;;;;3.92;2.83;;;20.30;55.50;;;;;;5074700;28;20225;-77
2023/10/13 01:36:09;;;;;;;3.25;2.88;;;20.20;55.80;;;;;;5074767;28;20611;-77
2023/10/13 01:38:41;;;;;;;3.20;2.90;;;20.30;55.60;;;;;;5074642;28;20285;-77
2023/10/13 01:41:08;;;;;;;3.70;2.80;;;20.20;55.60;;;;;;5058345;28;20315;-77
2023/10/13 01:43:36;;;;;;;3.03;2.83;;;20.20;55.60;;;;;;5074550;28;20194;-77
2023/10/13 01:46:03;;;;;;;3.10;2.75;;;20.30;55.60;;;;;;5074480;28;20199;-77
2023/10/13 01:48:32;;;;;;;3.03;2.72;;;20.20;55.60;;;;;;5074599;28;20202;-77
2023/10/13 01:51:00;;;;;;;3.08;2.55;;;20.20;55.70;;;;;;5074317;28;20587;-77
2023/10/13 01:53:28;;;;;;;2.70;2.35;;;20.20;55.70;;;;;;5074606;28;20198;-77
2023/10/13 01:55:58;;;;;;;2.75;2.55;;;20.20;55.60;;;;;;5074626;28;20229;-77
2023/10/13 01:58:28;;;;;;;3.40;2.90;;;20.20;55.60;;;;;;5074032;28;20195;-77
2023/10/13 02:00:56;;;;;;;3.20;2.90;;;20.20;55.60;;;;;;5074465;28;20215;-77
2023/10/13 02:03:23;;;;;;;2.83;2.50;;;20.10;55.50;;;;;;5074331;28;20195;-77
2023/10/13 02:05:52;;;;;;;3.30;3.00;;;20.10;55.60;;;;;;5074381;28;20214;-77
2023/10/13 02:08:24;;;;;;;2.72;2.53;;;20.10;55.70;;;;;;5074044;28;20217;-77
2023/10/13 02:10:51;;;;;;;3.80;2.83;;;20.10;55.70;;;;;;5074104;28;20680;-77
2023/10/13 02:13:22;;;;;;;3.58;2.95;;;20.10;55.60;;;;;;5073928;28;20198;-77
2023/10/13 02:15:51;;;;;;;3.17;2.88;;;20.10;55.60;;;;;;5074300;28;20229;-77
2023/10/13 02:18:20;;;;;;;2.72;2.53;;;20.10;55.70;;;;;;5073889;28;20197;-77
2023/10/13 02:20:54;;;;;;;3.40;2.53;;;20.10;56.00;;;;;;5074150;28;20222;-77
2023/10/13 02:23:22;;;;;;;3.25;2.83;;;20.10;55.70;;;;;;5073898;28;20626;-77
2023/10/13 02:25:52;;;;;;;3.00;2.80;;;20.00;55.70;;;;;;5073999;28;20576;-77
2023/10/13 02:28:28;;;;;;;3.13;2.83;;;20.10;55.80;;;;;;5073945;28;20198;-77
2023/10/13 02:30:54;;;;;;;3.33;3.03;;;20.00;55.70;;;;;;5073587;28;20221;-77
2023/10/13 02:33:22;;;;;;;3.70;2.75;;;20.00;55.70;;;;;;5073540;28;20588;-77
2023/10/13 02:35:53;;;;;;;3.20;2.80;;;20.00;55.80;;;;;;5073984;28;20186;-77
2023/10/13 02:38:28;;;;;;;2.97;2.67;;;20.00;55.80;;;;;;5073560;28;20183;-77
2023/10/13 02:40:54;;;;;;;3.65;2.83;;;20.00;55.70;;;;;;5073416;28;20222;-77
2023/10/13 02:43:24;;;;;;;3.75;2.90;;;20.00;55.80;;;;;;5073463;28;20282;-77
2023/10/13 02:45:57;;;;;;;3.03;2.83;;;20.00;55.80;;;;;;5073390;28;20198;-77
2023/10/13 02:48:30;;;;;;;3.15;2.78;;;20.00;55.80;;;;;;5073429;28;20210;-77
2023/10/13 02:51:01;;;;;;;3.20;2.90;;;20.00;55.90;;;;;;5073394;28;20214;-77
2023/10/13 02:53:29;;;;;;;3.65;2.83;;;20.00;55.90;;;;;;5074089;28;20183;-77
2023/10/13 02:55:58;;;;;;;4.25;3.05;;;20.00;55.90;;;;;;5073440;28;20191;-77
2023/10/13 02:58:37;;;;;;;3.20;2.90;;;20.00;55.70;;;;;;5073036;28;20198;-77
2023/10/13 03:01:16;;;;;;;3.33;2.97;;;19.90;55.80;;;;;;5072960;28;20742;-77
2023/10/13 03:03:47;;;;;;;3.58;2.70;;;19.90;55.70;;;;;;5072985;28;20244;-77
2023/10/13 03:06:14;;;;;;;3.55;2.70;;;19.90;55.60;;;;;;5072928;28;20289;-77
2023/10/13 03:08:42;;;;;;;3.47;2.75;;;19.90;55.70;;;;;;5073112;28;20191;-77
2023/10/13 03:11:09;;;;;;;2.95;2.70;;;19.90;55.80;;;;;;5056797;28;20215;-77
2023/10/13 03:13:43;;;;;;;3.08;2.78;;;19.90;56.00;;;;;;5074206;28;20273;-77
2023/10/13 03:16:15;;;;;;;3.25;2.95;;;19.90;56.00;;;;;;5072853;28;20225;-77
2023/10/13 03:18:51;;;;;;;3.28;2.97;;;19.90;55.90;;;;;;5056904;28;20187;-77
2023/10/13 03:21:28;;;;;;;2.78;2.42;;;19.90;55.80;;;;;;5071958;28;20207;-77
2023/10/13 03:23:55;;;;;;;3.05;2.78;;;20.00;55.90;;;;;;5073302;28;20195;-77
2023/10/13 03:26:22;;;;;;;3.00;2.70;;;20.00;55.90;;;;;;5072751;28;20560;-77
2023/10/13 03:28:52;;;;;;;4.00;2.70;;;20.00;55.70;;;;;;5072683;28;20202;-77
2023/10/13 03:31:23;;;;;;;3.58;2.97;;;20.00;55.60;;;;;;5072577;28;20218;-77
2023/10/13 03:33:56;;;;;;;3.60;3.20;;;20.00;55.50;;;;;;5072572;28;20205;-77
2023/10/13 03:36:56;;;;;;;3.33;2.83;;;20.10;55.40;;;;;;5057119;28;20251;-77
2023/10/13 03:39:28;;;;;;;3.00;2.70;;;20.10;55.60;;;;;;5073281;28;20627;-77
2023/10/13 03:41:58;;;;;;;2.75;2.53;;;20.20;55.60;;;;;;5073610;28;20218;-77
2023/10/13 03:44:30;;;;;;;4.85;2.78;;;20.10;55.30;;;;;;5056052;28;20677;-77
2023/10/13 03:47:08;;;;;;;2.95;2.60;;;20.10;55.40;;;;;;5074092;28;20179;-77
2023/10/13 03:49:37;;;;;;;3.10;2.80;;;20.20;55.50;;;;;;5072445;28;20226;-77
2023/10/13 03:52:05;;;;;;;2.88;2.67;;;20.20;55.40;;;;;;5072536;28;20677;-77
2023/10/13 03:54:34;;;;;;;2.80;2.60;;;20.20;55.40;;;;;;5072463;28;20199;-77
2023/10/13 03:57:10;;;;;;;2.97;2.72;;;20.20;55.20;;;;;;5072320;28;20220;-77
2023/10/13 04:02:18;;;;;;;3.25;2.85;;;20.20;55.10;;;;;;4994934;28;20223;-82
2023/10/13 04:04:49;;;;;;;3.40;2.88;;;20.20;54.90;;;;;;4994952;28;20217;-82
2023/10/13 04:11:49;;;;;;;3.00;2.70;;;20.20;54.80;;;;;;4990080;28;20303;-82
2023/10/13 04:16:34;;;;;;;3.35;3.05;;;20.30;54.80;;;;;;4995112;28;20202;-82
2023/10/13 04:19:19;;;;;;;4.47;2.85;;;20.20;54.70;;;;;;4994745;28;20201;-82
2023/10/13 04:21:58;;;;;;;3.25;2.72;;;20.20;55.00;;;;;;4995086;28;20209;-82
2023/10/13 04:27:53;;;;;;;3.15;2.88;;;20.20;55.10;;;;;;4996918;28;20276;-83
2023/10/13 04:30:26;;;;;;;3.22;2.92;;;20.10;55.10;;;;;;4995429;28;20233;-83
2023/10/13 04:33:35;;;;;;;2.90;2.60;;;20.10;55.20;;;;;;4996464;28;20610;-83
2023/10/13 04:36:13;;;;;;;3.28;2.67;;;20.10;55.30;;;;;;4998229;28;20201;-83
2023/10/13 04:38:55;;;;;;;3.53;2.90;;;20.10;55.30;;;;;;4998451;28;20653;-83
2023/10/13 04:41:23;;;;;;;3.00;2.70;;;20.00;55.20;;;;;;4997308;28;20220;-83
2023/10/13 04:43:56;;;;;;;3.38;2.90;;;20.00;55.40;;;;;;4997400;28;20193;-83
2023/10/13 04:46:35;;;;;;;3.25;2.60;;;20.00;55.30;;;;;;4982334;28;20204;-83
2023/10/13 04:49:09;;;;;;;3.35;3.05;;;20.00;55.50;;;;;;4998892;28;20181;-83
2023/10/13 04:51:58;;;;;;;3.60;2.65;;;20.00;55.40;;;;;;4999498;28;20191;-83
2023/10/13 04:54:33;;;;;;;3.00;2.70;;;20.00;55.40;;;;;;4997648;28;20212;-83
2023/10/13 05:05:21;;;;;;;3.28;2.97;;;19.90;55.40;;;;;;4997994;28;20189;-82
2023/10/13 05:46:49;;;;;;;2.65;2.42;;;19.80;55.60;;;;;;4996337;28;20256;-82
2023/10/13 05:52:18;;;;;;;4.55;3.25;;;19.70;55.60;;;;;;4997150;28;20248;-82
2023/10/13 06:30:36;;;;;;;3.72;3.40;;;20.00;55.50;;;;;;4997538;28;20213;-82
2023/10/13 06:33:04;;;;;;;4.75;3.35;;;20.00;55.50;;;;;;4996317;28;20549;-82
2023/10/13 06:35:31;;;;;;;3.78;2.85;;;20.10;55.50;;;;;;4996008;28;20655;-82
2023/10/13 06:38:00;;;;;;;5.15;3.10;;;20.10;55.50;;;;;;4995823;28;20687;-82
2023/10/13 06:40:33;;;;;;;3.40;3.10;;;20.10;55.30;;;;;;4996901;28;20275;-82
2023/10/13 06:43:12;;;;;;;3.42;3.13;;;20.10;55.30;;;;;;4995635;28;20767;-82
2023/10/13 06:45:43;;;;;;;4.45;3.30;;;20.20;55.30;;;;;;4996098;28;20205;-82
2023/10/13 06:48:13;;;;;;;8.38;3.28;;;20.20;55.30;;;;;;4995644;28;20194;-82
2023/10/13 06:50:41;;;;;;;3.90;3.15;;;20.20;55.30;;;;;;4995272;28;20239;-82
2023/10/13 06:53:12;;;;;;;4.90;3.40;;;20.30;55.20;;;;;;4994923;28;20596;-82
2023/10/13 06:55:39;;;;;;;3.35;2.90;;;20.30;55.20;;;;;;4995254;28;20237;-82
2023/10/13 06:58:13;;;;;;;3.50;3.20;;;20.30;55.10;;;;;;4995376;28;20292;-82
2023/10/13 07:00:52;;;;;;;3.10;2.90;;;20.30;55.10;;;;;;4995325;28;20244;-82
2023/10/13 07:03:21;;;;;;;4.32;3.50;;;20.40;55.20;;;;;;4994704;28;20209;-82
2023/10/13 07:05:48;;;;;;;3.67;3.05;;;20.40;55.10;;;;;;4979327;28;20209;-82
2023/10/13 07:08:19;;;;;;;3.67;3.20;;;20.40;55.00;;;;;;4995282;28;20203;-82
2023/10/13 07:11:02;;;;;;;4.13;3.22;;;20.40;55.00;;;;;;4996046;28;20229;-82
2023/10/13 07:13:29;;;;;;;5.45;3.33;;;20.40;55.50;;;;;;4995309;28;20193;-82
2023/10/13 07:16:05;;;;;;;3.88;3.03;;;20.40;54.90;;;;;;4994765;28;20805;-82
2023/10/13 07:18:36;;;;;;;3.20;2.88;;;20.50;55.00;;;;;;4995875;28;20178;-82
2023/10/13 07:21:09;;;;;;;3.67;3.25;;;20.50;54.90;;;;;;4994631;28;20624;-82
2023/10/13 07:23:37;;;;;;;4.15;3.05;;;20.60;55.00;;;;;;4978988;28;20217;-82
2023/10/13 07:26:06;;;;;;;3.70;3.40;;;20.60;54.90;;;;;;4994651;28;20229;-82
2023/10/13 07:28:35;;;;;;;4.88;3.55;;;20.70;54.80;;;;;;4995151;28;20287;-82
2023/10/13 07:31:11;;;;;;;3.58;3.13;;;20.70;54.80;;;;;;4994154;28;20228;-82
2023/10/13 07:33:40;;;;;;;4.65;3.30;;;20.70;54.60;;;;;;4994119;28;20189;-82
2023/10/13 07:36:15;;;;;;;4.50;3.17;;;20.70;54.50;;;;;;4978000;28;20204;-82
2023/10/13 07:38:43;;;;;;;4.40;3.00;;;20.80;54.50;;;;;;4994281;28;20581;-82
2023/10/13 07:41:15;;;;;;;4.72;3.17;;;20.80;54.30;;;;;;4995163;28;20233;-82
2023/10/13 07:44:06;;;;;;;3.58;3.17;;;20.80;54.10;;;;;;4995301;28;20177;-82
2023/10/13 07:46:35;;;;;;;3.65;3.20;;;20.90;54.10;;;;;;4994189;28;20201;-82
2023/10/13 07:49:10;;;;;;;5.07;3.38;;;20.90;54.00;;;;;;4993913;28;20189;-82
2023/10/13 07:51:44;;;;;;;3.92;3.03;;;21.00;54.00;;;;;;4994199;28;20197;-83
2023/10/13 07:54:13;;;;;;;5.45;3.03;;;21.00;54.00;;;;;;4994936;28;20641;-83
2023/10/13 07:56:40;;;;;;;3.85;3.30;;;21.10;54.00;;;;;;4997589;28;20189;-83
2023/10/13 07:59:09;;;;;;;3.38;3.05;;;21.10;53.90;;;;;;4996174;28;20203;-83
2023/10/13 08:01:42;;;;;;;5.13;2.92;;;21.20;53.70;;;;;;4997014;28;20208;-83
2023/10/13 08:04:12;;;;;;;4.00;3.03;;;21.40;53.60;;;;;;4996444;28;20216;-83
2023/10/13 08:06:40;;;;;;;3.70;3.00;;;21.60;53.10;;;;;;4996577;28;20201;-83
2023/10/13 08:09:28;;;;;;;4.05;2.95;;;21.70;52.60;;;;;;5001653;28;20221;-83
2023/10/13 08:11:55;;;;;;;3.38;3.08;;;21.90;52.30;;;;;;4984526;28;20637;-83
2023/10/13 08:14:23;;;;;;;3.22;2.85;;;22.10;51.90;;;;;;4997940;28;20201;-83
2023/10/13 08:16:59;;;;;;;3.10;2.63;;;22.20;51.70;;;;;;4982576;28;20204;-83
2023/10/13 08:19:27;;;;;;;3.45;2.78;;;22.30;51.30;;;;;;4999095;28;20275;-83
2023/10/13 08:21:58;;;;;;;3.40;2.42;;;22.40;51.10;;;;;;4999327;28;20212;-83
2023/10/13 08:24:29;;;;;;;2.70;2.50;;;22.50;50.70;;;;;;4999414;28;20256;-83
2023/10/13 08:27:32;;;;;;;2.80;2.55;;;22.60;50.70;;;;;;5001030;28;20189;-83
2023/10/13 08:32:54;;;;;;;3.17;2.83;;;22.80;50.20;;;;;;5001092;28;20189;-83
2023/10/13 08:35:33;;;;;;;3.25;2.58;;;22.80;50.10;;;;;;4997195;28;20201;-83
2023/10/13 08:38:04;;;;;;;2.75;2.55;;;22.90;50.10;;;;;;4997532;28;20251;-83
2023/10/13 08:41:28;;;;;;;2.50;2.30;;;22.90;50.00;;;;;;4997918;28;20217;-83
2023/10/13 08:43:42;;;;;;;3.17;2.75;;;23.00;49.70;;;;;;4985875;28;20217;-83
2023/10/13 08:46:24;;;;;;;2.90;2.50;;;23.10;49.50;;;;;;4997525;28;20200;-83
2023/10/13 08:49:09;;;;;;;2.78;2.58;;;23.20;49.40;;;;;;4998082;28;20208;-83
2023/10/13 08:51:48;;;;;;;3.10;2.40;;;23.20;49.10;;;;;;4998637;28;20198;-83
2023/10/13 08:54:34;;;;;;;3.00;2.50;;;23.30;49.00;;;;;;4998352;28;20599;-83
2023/10/13 08:57:19;;;;;;;2.85;2.58;;;23.30;48.70;;;;;;4998471;28;20201;-83
2023/10/13 08:59:53;;;;;;;3.55;2.25;;;23.40;48.50;;;;;;4998751;28;20239;-83
2023/10/13 09:02:22;;;;;;;3.25;2.47;;;23.50;48.60;;;;;;5001907;28;20225;-83
2023/10/13 09:04:59;;;;;;;2.63;2.42;;;23.50;48.50;;;;;;5001348;28;20197;-83
2023/10/13 09:07:25;;;;;;;2.30;2.10;;;23.60;48.40;;;;;;5000114;28;20200;-82
2023/10/13 09:10:32;;;;;;;3.13;2.83;;;23.70;48.20;;;;;;5000636;28;20221;-82
2023/10/13 09:13:01;;;;;;;2.80;2.55;;;23.70;48.10;;;;;;5001200;28;20287;-82
2023/10/13 09:18:41;;;;;;;2.90;2.45;;;23.80;47.80;;;;;;5010195;28;20204;-82
2023/10/13 09:24:16;;;;;;;2.50;2.30;;;23.90;47.60;;;;;;5008515;28;20232;-82
2023/10/13 09:26:44;;;;;;;2.88;2.60;;;23.90;47.50;;;;;;5007784;28;20300;-82
2023/10/13 09:29:20;;;;;;;3.05;2.38;;;24.00;47.50;;;;;;4988241;28;20220;-82
2023/10/13 09:31:48;;;;;;;2.70;2.50;;;24.00;47.40;;;;;;5000201;28;20255;-82
2023/10/13 09:34:23;;;;;;;2.78;2.58;;;24.10;47.30;;;;;;4999796;28;20228;-82
2023/10/13 09:36:55;;;;;;;2.45;2.25;;;24.10;47.20;;;;;;4999464;28;20315;-82
2023/10/13 09:42:18;;;;;;;3.03;2.40;;;24.20;47.20;;;;;;4981168;28;20295;-82
2023/10/13 09:44:51;;;;;;;3.10;2.53;;;24.20;47.10;;;;;;5021314;28;20200;-82
2023/10/13 09:47:24;;;;;;;2.45;2.20;;;24.20;47.10;;;;;;5003542;28;20284;-83
2023/10/13 09:49:51;;;;;;;3.03;2.42;;;24.20;47.00;;;;;;5003272;28;20225;-82
2023/10/13 09:52:20;;;;;;;2.70;2.50;;;24.20;47.00;;;;;;5002995;28;20279;-82
2023/10/13 09:54:59;;;;;;;2.40;2.20;;;24.20;47.00;;;;;;5003730;28;20664;-82
2023/10/13 09:57:34;;;;;;;2.40;2.20;;;24.20;47.10;;;;;;5003125;28;20192;-83
2023/10/13 10:00:07;;;;;;;2.85;2.42;;;24.20;47.20;;;;;;5018464;28;20274;-83
2023/10/13 10:02:43;;;;;;;2.53;2.33;;;24.10;47.20;;;;;;5017954;28;20212;-83
2023/10/13 10:05:12;;;;;;;2.33;2.13;;;24.10;47.20;;;;;;5000020;28;20667;-83
2023/10/13 10:07:43;;;;;;;2.55;2.35;;;24.10;47.20;;;;;;4999510;28;20199;-83
2023/10/13 10:10:09;;;;;;;2.40;2.20;;;24.10;47.20;;;;;;5000052;28;20311;-83
2023/10/13 10:12:40;;;;;;;3.15;2.63;;;24.20;47.20;;;;;;5001266;28;20203;-82
2023/10/13 10:15:30;;;;;;;2.70;2.30;;;24.20;47.20;;;;;;5001595;28;20192;-82
2023/10/13 10:17:57;;;;;;;3.22;2.50;;;24.20;47.20;;;;;;5007704;28;20266;-82
2023/10/13 10:20:39;;;;;;;2.70;2.50;;;24.10;47.10;;;;;;5002309;28;20216;-82
2023/10/13 10:23:21;;;;;;;2.58;2.30;;;24.20;47.30;;;;;;5001996;28;20217;-82
2023/10/13 10:25:51;;;;;;;2.60;2.40;;;24.20;47.20;;;;;;5002664;28;20196;-82
2023/10/13 10:28:20;;;;;;;2.50;2.30;;;24.10;47.20;;;;;;5001836;28;20279;-82
2023/10/13 10:30:47;;;;;;;2.15;1.98;;;24.10;47.20;;;;;;5002138;28;20221;-82
2023/10/13 10:33:15;;;;;;;2.40;2.20;;;24.10;47.20;;;;;;4985450;28;20246;-82
2023/10/13 10:35:43;;;;;;;3.17;2.38;;;24.10;47.20;;;;;;5001489;28;20227;-82
2023/10/13 10:38:15;;;;;;;2.45;2.25;;;24.10;47.20;;;;;;5020151;28;20636;-82
2023/10/13 10:40:56;;;;;;;2.53;2.33;;;24.10;47.30;;;;;;5001925;28;20250;-82
2023/10/13 10:43:29;;;;;;;2.70;2.33;;;24.10;47.30;;;;;;5002843;28;20261;-82
2023/10/13 10:45:59;;;;;;;2.50;2.30;;;24.10;47.30;;;;;;5002309;28;20181;-83
2023/10/13 10:48:32;;;;;;;2.38;2.17;;;24.10;47.40;;;;;;5002282;28;20196;-83
2023/10/13 10:51:06;;;;;;;2.53;2.33;;;24.10;47.40;;;;;;5002487;28;20224;-83
2023/10/13 10:53:43;;;;;;;2.42;2.22;;;24.10;47.40;;;;;;5001801;28;20189;-83
2023/10/13 10:56:19;;;;;;;2.30;2.10;;;24.00;47.40;;;;;;4997813;28;20200;-83
2023/10/13 10:58:48;;;;;;;2.20;2.00;;;24.00;47.50;;;;;;4998608;28;20224;-82
2023/10/13 11:01:20;;;;;;;2.22;2.03;;;24.00;47.50;;;;;;4998762;28;20223;-82
2023/10/13 11:03:57;;;;;;;2.30;2.10;;;24.00;47.60;;;;;;4984190;28;20244;-82
2023/10/13 11:06:25;;;;;;;2.35;2.15;;;24.00;47.70;;;;;;5017120;28;20210;-82
2023/10/13 11:09:07;;;;;;;2.45;2.25;;;24.00;47.90;;;;;;5000612;28;20196;-82
2023/10/13 11:11:36;;;;;;;2.42;2.22;;;23.90;47.90;;;;;;5000130;28;20218;-83
2023/10/13 11:14:17;;;;;;;2.10;2.00;;;23.90;48.00;;;;;;4999259;28;20199;-83
2023/10/13 11:16:50;;;;;;;2.30;2.10;;;23.90;48.10;;;;;;5001877;28;20208;-83
2023/10/13 11:19:25;;;;;;;2.30;2.10;;;23.90;48.00;;;;;;4999667;28;20597;-83
2023/10/13 11:21:55;;;;;;;2.65;2.45;;;23.90;48.00;;;;;;4999298;28;20199;-83
2023/10/13 11:24:24;;;;;;;2.17;2.00;;;23.90;48.00;;;;;;4999412;28;20219;-82
2023/10/13 11:26:54;;;;;;;2.28;2.13;;;24.00;48.00;;;;;;4999117;28;20198;-82
2023/10/13 11:29:31;;;;;;;2.50;2.30;;;24.00;48.00;;;;;;4998531;28;20216;-82
2023/10/13 11:32:00;;;;;;;2.58;2.38;;;24.00;48.00;;;;;;4998511;28;20291;-82
2023/10/13 11:34:39;;;;;;;2.22;2.13;;;24.00;48.00;;;;;;4997692;28;20566;-82
2023/10/13 11:39:51;;;;;;;2.45;2.25;;;24.10;48.10;;;;;;4996338;28;20640;-82
2023/10/13 11:42:18;;;;;;;2.47;2.28;;;24.00;48.00;;;;;;4998270;28;20283;-82
2023/10/13 11:44:44;;;;;;;2.70;2.50;;;24.00;48.00;;;;;;5015641;28;20213;-83
2023/10/13 11:47:47;;;;;;;2.10;2.00;;;24.00;48.00;;;;;;4998144;28;20219;-83
2023/10/13 11:50:08;;;;;;;2.10;1.90;;;24.00;48.10;;;;;;4998891;28;20221;-83
2023/10/13 11:52:35;;;;;;;2.40;2.20;;;24.00;48.10;;;;;;4998439;28;20280;-83
2023/10/13 11:55:05;;;;;;;2.30;2.10;;;24.10;48.20;;;;;;4983321;28;20204;-83
2023/10/13 11:57:32;;;;;;;2.08;1.95;;;24.10;48.20;;;;;;5000225;28;20201;-83
2023/10/13 12:00:24;;;;;;;2.42;2.22;;;24.10;48.20;;;;;;4998802;28;20221;-83
2023/10/13 12:05:49;;;;;;;2.50;2.30;;;24.10;48.20;;;;;;4997875;28;20199;-83
2023/10/13 12:08:22;;;;;;;2.40;2.20;;;24.10;48.30;;;;;;4997857;28;20191;-83
2023/10/13 12:10:59;;;;;;;2.22;1.98;;;24.10;48.30;;;;;;5003623;28;20227;-83
2023/10/13 12:13:28;;;;;;;2.25;2.05;;;24.10;48.30;;;;;;5009307;28;20212;-83
2023/10/13 12:15:56;;;;;;;2.20;2.10;;;24.10;48.40;;;;;;5008662;28;20222;-82
2023/10/13 12:18:26;;;;;;;2.45;2.17;;;24.10;48.40;;;;;;4991662;28;20200;-83
2023/10/13 12:20:54;;;;;;;2.13;2.00;;;24.10;48.50;;;;;;4998684;28;20228;-83
2023/10/13 12:23:31;;;;;;;2.60;2.30;;;24.10;48.50;;;;;;4997767;28;20216;-83
2023/10/13 12:25:59;;;;;;;1.92;1.75;;;24.10;48.60;;;;;;4997219;28;20192;-83
2023/10/13 12:28:28;;;;;;;2.15;1.95;;;24.00;48.50;;;;;;4997262;28;20203;-83
2023/10/13 12:30:57;;;;;;;2.30;2.10;;;24.00;48.60;;;;;;4997302;28;20231;-82
2023/10/13 12:33:36;;;;;;;2.30;2.05;;;24.00;48.60;;;;;;4997209;28;20637;-82
2023/10/13 12:36:06;;;;;;;2.67;2.13;;;24.00;48.70;;;;;;4996832;28;20203;-82
2023/10/13 12:48:55;;;;;;;2.40;2.20;;;24.00;48.70;;;;;;4996892;28;20372;-82
2023/10/13 12:50:08;;;;;;;2.40;2.20;;;24.00;48.90;;;;;;4996101;28;20263;-82
2023/10/13 12:52:36;;;;;;;1.90;1.80;;;24.00;49.00;;;;;;4996905;28;20208;-83
2023/10/13 12:55:13;;;;;;;2.40;2.20;;;24.00;49.00;;;;;;4999013;28;20189;-82
2023/10/13 12:57:44;;;;;;;2.35;2.15;;;24.00;49.00;;;;;;5001630;28;20574;-82
2023/10/13 13:00:25;;;;;;;2.00;1.90;;;23.90;48.90;;;;;;5001650;28;20228;-83
2023/10/13 13:02:55;;;;;;;2.50;2.25;;;23.90;48.90;;;;;;5002149;28;20193;-83
2023/10/13 13:05:28;;;;;;;2.28;2.05;;;23.90;49.00;;;;;;5002194;28;20243;-83
2023/10/13 13:07:55;;;;;;;1.90;1.80;;;23.90;49.10;;;;;;5002314;28;20197;-83
2023/10/13 13:10:34;;;;;;;2.38;2.17;;;23.80;49.10;;;;;;5002143;28;20228;-83
2023/10/13 13:13:05;;;;;;;2.10;1.90;;;23.80;49.10;;;;;;5003259;28;20642;-82
2023/10/13 13:15:32;;;;;;;2.30;2.10;;;23.80;49.20;;;;;;5002089;28;20192;-82
2023/10/13 13:18:09;;;;;;;2.30;2.10;;;23.80;49.20;;;;;;5001698;28;20193;-82
2023/10/13 13:20:39;;;;;;;2.40;2.20;;;23.90;49.40;;;;;;5001570;28;20227;-82
2023/10/13 13:23:06;;;;;;;1.90;1.80;;;23.80;49.30;;;;;;5001412;28;20201;-82
2023/10/13 13:25:34;;;;;;;2.20;2.00;;;23.80;49.40;;;;;;5001454;28;20201;-82
2023/10/13 13:28:05;;;;;;;2.22;2.03;;;23.70;49.40;;;;;;5001097;28;20287;-82
2023/10/13 13:30:35;;;;;;;2.45;2.20;;;23.70;50.00;;;;;;5001078;28;20220;-82
2023/10/13 13:33:10;;;;;;;1.70;1.60;;;23.70;49.40;;;;;;5000870;28;20211;-82
2023/10/13 13:35:38;;;;;;;2.00;1.90;;;23.70;49.60;;;;;;5001391;28;20201;-82
2023/10/13 13:38:16;;;;;;;2.30;2.10;;;23.60;49.50;;;;;;5000688;28;20192;-82
2023/10/13 13:40:48;;;;;;;1.90;1.80;;;23.70;49.60;;;;;;4983436;28;20634;-82
2023/10/13 13:43:31;;;;;;;1.92;1.83;;;23.70;49.60;;;;;;4984299;28;20197;-82
2023/10/13 13:46:02;;;;;;;2.10;1.90;;;23.60;49.60;;;;;;4999897;28;20196;-82
2023/10/13 13:48:29;;;;;;;2.30;1.90;;;23.60;49.70;;;;;;4999602;28;20215;-82
2023/10/13 13:51:04;;;;;;;2.08;1.98;;;23.60;49.80;;;;;;4999602;28;20228;-82
2023/10/13 13:53:34;;;;;;;2.30;2.10;;;23.60;50.00;;;;;;4999139;28;20583;-82
2023/10/13 13:56:02;;;;;;;2.30;2.10;;;23.60;50.00;;;;;;4999184;28;20652;-82
2023/10/13 13:58:30;;;;;;;2.10;2.00;;;23.60;50.00;;;;;;5001075;28;20197;-83
2023/10/13 14:01:11;;;;;;;2.10;2.00;;;23.60;49.90;;;;;;5000150;28;20634;-82
2023/10/13 14:03:44;;;;;;;2.08;1.88;;;23.60;49.80;;;;;;5000037;28;20216;-82
2023/10/13 14:06:18;;;;;;;2.08;1.90;;;23.60;49.80;;;;;;4999814;28;20193;-83
2023/10/13 14:08:48;;;;;;;1.90;1.80;;;23.60;49.80;;;;;;4999319;28;20193;-83
2023/10/13 14:12:25;;;;;;;2.05;1.95;;;23.60;49.80;;;;;;4999295;28;20597;-83
2023/10/13 14:14:13;;;;;;;2.28;2.08;;;23.60;49.80;;;;;;4999395;28;20193;-83
2023/10/13 14:16:45;;;;;;;2.13;1.90;;;23.60;49.80;;;;;;4999746;28;20264;-83
2023/10/13 14:19:12;;;;;;;2.20;2.00;;;23.60;49.80;;;;;;4999928;28;20202;-82
2023/10/13 14:21:39;;;;;;;1.70;1.60;;;23.60;49.80;;;;;;4999043;28;20201;-82
2023/10/13 14:24:13;;;;;;;1.80;1.70;;;23.70;49.80;;;;;;5016466;28;20231;-82
2023/10/13 14:26:42;;;;;;;1.90;1.80;;;23.60;49.70;;;;;;4999085;28;20224;-82
2023/10/13 14:29:14;;;;;;;2.70;2.10;;;23.60;49.80;;;;;;4998929;28;20193;-82
2023/10/13 14:31:43;;;;;;;1.95;1.85;;;23.60;50.10;;;;;;4998477;28;20636;-82
2023/10/13 14:34:11;;;;;;;2.30;2.10;;;23.70;49.80;;;;;;4982472;28;20193;-82
2023/10/13 14:36:37;;;;;;;2.00;1.90;;;23.60;49.80;;;;;;4982383;28;20197;-82
2023/10/13 14:39:08;;;;;;;2.17;1.98;;;23.60;49.80;;;;;;4998066;28;20270;-82
2023/10/13 14:41:36;;;;;;;2.17;2.00;;;23.60;49.80;;;;;;4998076;28;20291;-82
2023/10/13 14:44:06;;;;;;;1.80;1.70;;;23.60;49.80;;;;;;4998395;28;20255;-82
2023/10/13 14:46:35;;;;;;;2.30;1.80;;;23.60;49.90;;;;;;4998109;28;20208;-82
2023/10/13 14:49:03;;;;;;;2.20;2.00;;;23.60;49.90;;;;;;4997886;28;20197;-82
2023/10/13 14:51:31;;;;;;;1.80;1.70;;;23.60;50.00;;;;;;4998280;28;20675;-83
2023/10/13 14:53:59;;;;;;;2.03;1.92;;;23.60;50.00;;;;;;5000573;28;20243;-83
2023/10/13 14:56:26;;;;;;;2.00;1.80;;;23.50;49.90;;;;;;5000956;28;20199;-84
2023/10/13 14:58:54;;;;;;;2.10;1.90;;;23.60;50.10;;;;;;5001415;28;20232;-83
2023/10/13 15:01:24;;;;;;;2.25;1.73;;;23.50;50.00;;;;;;5000806;28;20742;-83
2023/10/13 15:03:54;;;;;;;1.80;1.70;;;23.50;50.10;;;;;;5000710;28;20572;-83
2023/10/13 15:06:25;;;;;;;1.90;1.80;;;23.50;50.10;;;;;;5000455;28;20196;-83
2023/10/13 15:08:54;;;;;;;1.70;1.60;;;23.50;50.10;;;;;;5000605;28;20625;-83
2023/10/13 15:11:21;;;;;;;1.70;1.60;;;23.50;50.20;;;;;;5003356;28;20188;-84
2023/10/13 15:13:50;;;;;;;1.90;1.80;;;23.50;50.30;;;;;;5007175;28;20291;-84
2023/10/13 15:16:17;;;;;;;1.95;1.85;;;23.50;50.30;;;;;;5002799;28;20196;-84
2023/10/13 15:18:45;;;;;;;1.80;1.70;;;23.40;50.30;;;;;;5005714;28;20211;-83
2023/10/13 15:21:13;;;;;;;1.88;1.70;;;23.40;50.30;;;;;;5006044;28;20236;-82